createdAt,value
2018-12-15T00:01:23.490Z,-1.60
2018-12-15T00:04:01.797Z,-1.70
2018-12-15T00:06:57.260Z,-1.70
2018-12-15T00:09:29.398Z,-1.80
2018-12-15T00:12:06.085Z,-1.70
2018-12-15T00:14:40.346Z,-1.80
2018-12-15T00:17:22.794Z,-1.70
2018-12-15T00:19:53.452Z,-1.70
2018-12-15T00:22:41.895Z,-1.90
2018-12-15T00:25:22.680Z,-1.80
2018-12-15T00:27:56.295Z,-1.80
2018-12-15T00:30:35.759Z,-1.70
2018-12-15T00:33:09.422Z,-1.80
2018-12-15T00:35:45.373Z,-1.70
2018-12-15T00:38:22.082Z,-1.70
2018-12-15T00:40:58.343Z,-1.80
2018-12-15T00:43:34.572Z,-1.90
2018-12-15T00:46:14.959Z,-2.00
2018-12-15T00:48:47.051Z,-1.90
2018-12-15T00:51:23.180Z,-1.80
2018-12-15T00:53:55.256Z,-1.80
2018-12-15T00:56:37.571Z,-1.90
2018-12-15T00:59:09.385Z,-1.90
2018-12-15T01:01:45.661Z,-1.90
2018-12-15T01:04:21.782Z,-1.90
2018-12-15T01:06:53.922Z,-1.90
2018-12-15T01:09:29.745Z,-1.90
2018-12-15T01:12:08.206Z,-1.80
2018-12-15T01:14:44.866Z,-1.80
2018-12-15T01:17:21.529Z,-1.80
2018-12-15T01:19:55.535Z,-1.80
2018-12-15T01:22:29.731Z,-1.90
2018-12-15T01:25:06.433Z,-2.00
2018-12-15T01:27:43.078Z,-2.00
2018-12-15T01:30:19.645Z,-2.00
2018-12-15T01:32:50.031Z,-2.00
2018-12-15T01:35:30.479Z,-2.10
2018-12-15T01:38:03.780Z,-2.00
2018-12-15T01:40:34.184Z,-2.00
2018-12-15T01:43:04.574Z,-2.00
2018-12-15T01:45:44.237Z,-2.00
2018-12-15T01:48:14.652Z,-2.00
2018-12-15T01:50:45.017Z,-2.00
2018-12-15T01:53:17.355Z,-2.10
2018-12-15T01:55:50.936Z,-2.00
2018-12-15T01:58:26.905Z,-2.00
2018-12-15T02:01:04.452Z,-2.00
2018-12-15T02:03:46.641Z,-1.90
2018-12-15T02:06:25.448Z,-1.90
2018-12-15T02:09:07.792Z,-2.00
2018-12-15T02:11:46.483Z,-2.00
2018-12-15T02:14:22.878Z,-2.00
2018-12-15T02:16:59.387Z,-1.90
2018-12-15T02:19:36.054Z,-2.10
2018-12-15T02:22:12.834Z,-2.00
2018-12-15T02:24:49.486Z,-2.00
2018-12-15T02:27:23.431Z,-1.90
2018-12-15T02:29:53.808Z,-1.90
2018-12-15T02:32:28.818Z,-1.90
2018-12-15T02:34:59.749Z,-1.80
2018-12-15T02:37:32.568Z,-1.80
2018-12-15T02:40:09.068Z,-1.90
2018-12-15T02:42:43.533Z,-1.90
2018-12-15T02:45:13.924Z,-1.90
2018-12-15T02:47:47.343Z,-2.00
2018-12-15T02:50:30.231Z,-2.00
2018-12-15T02:53:07.449Z,-1.90
2018-12-15T02:55:38.870Z,-2.00
2018-12-15T02:58:15.530Z,-2.00
2018-12-15T03:00:47.822Z,-2.10
2018-12-15T03:03:21.393Z,-2.10
2018-12-15T03:06:03.778Z,-2.00
2018-12-15T03:08:39.900Z,-1.90
2018-12-15T03:11:16.368Z,-1.90
2018-12-15T03:13:52.181Z,-1.90
2018-12-15T03:19:19.020Z,-1.90
2018-12-15T03:21:53.064Z,-1.90
2018-12-15T03:27:07.555Z,-1.90
2018-12-15T03:29:38.004Z,-2.00
2018-12-15T03:32:12.321Z,-2.10
2018-12-15T03:34:54.725Z,-2.00
2018-12-15T03:37:34.688Z,-2.00
2018-12-15T03:40:12.223Z,-1.90
2018-12-15T03:42:42.804Z,-2.00
2018-12-15T03:45:16.120Z,-1.90
2018-12-15T03:47:56.163Z,-1.90
2018-12-15T03:50:32.330Z,-2.10
2018-12-15T03:53:02.745Z,-2.10
2018-12-15T03:55:34.757Z,-2.10
2018-12-15T03:58:17.723Z,-2.10
2018-12-15T04:00:48.125Z,-2.00
2018-12-15T04:03:18.500Z,-1.90
2018-12-15T04:05:48.867Z,-2.00
2018-12-15T04:08:25.577Z,-2.00
2018-12-15T04:10:55.985Z,-2.00
2018-12-15T04:13:32.407Z,-2.00
2018-12-15T04:16:02.833Z,-1.90
2018-12-15T04:18:33.220Z,-1.90
2018-12-15T04:21:03.628Z,-1.90
2018-12-15T04:23:36.952Z,-2.00
2018-12-15T04:26:07.322Z,-2.00
2018-12-15T04:28:43.961Z,-2.00
2018-12-15T04:31:18.335Z,-1.90
2018-12-15T04:33:54.923Z,-2.00
2018-12-15T04:36:25.376Z,-2.00
2018-12-15T04:39:03.988Z,-1.90
2018-12-15T04:41:36.183Z,-1.90
2018-12-15T04:44:06.651Z,-1.80
2018-12-15T04:46:38.031Z,-1.80
2018-12-15T04:49:20.583Z,-1.80
2018-12-15T04:51:54.320Z,-1.80
2018-12-15T04:54:34.936Z,-1.80
2018-12-15T04:57:15.172Z,-1.80
2018-12-15T04:59:46.552Z,-1.90
2018-12-15T05:02:16.958Z,-2.00
2018-12-15T05:04:54.822Z,-1.90
2018-12-15T05:07:31.495Z,-1.90
2018-12-15T05:10:08.962Z,-1.90
2018-12-15T05:12:39.354Z,-1.90
2018-12-15T05:15:09.752Z,-1.90
2018-12-15T05:17:45.659Z,-1.80
2018-12-15T05:20:23.542Z,-1.90
2018-12-15T05:23:06.511Z,-1.90
2018-12-15T05:25:38.132Z,-1.80
2018-12-15T05:28:08.608Z,-1.80
2018-12-15T05:30:39.026Z,-1.80
2018-12-15T05:33:09.437Z,-1.90
2018-12-15T05:35:49.687Z,-1.90
2018-12-15T05:38:22.253Z,-1.90
2018-12-15T05:40:52.765Z,-1.80
2018-12-15T05:43:24.402Z,-1.90
2018-12-15T05:45:56.793Z,-1.90
2018-12-15T05:48:47.780Z,-1.80
2018-12-15T05:51:28.399Z,-1.80
2018-12-15T05:53:58.813Z,-1.90
2018-12-15T05:56:29.226Z,-1.50
2018-12-15T05:58:59.653Z,-1.40
2018-12-15T06:01:30.050Z,-1.30
2018-12-15T06:04:00.820Z,-1.50
2018-12-15T06:06:31.299Z,-1.60
2018-12-15T06:09:01.785Z,-1.60
2018-12-15T06:11:35.307Z,-1.70
2018-12-15T06:14:06.096Z,-1.70
2018-12-15T06:16:36.466Z,-1.70
2018-12-15T06:19:06.928Z,-1.80
2018-12-15T06:21:38.404Z,-1.80
2018-12-15T06:24:09.222Z,-1.90
2018-12-15T06:26:39.927Z,-1.80
2018-12-15T06:29:10.335Z,-1.80
2018-12-15T06:31:40.701Z,-1.90
2018-12-15T06:34:11.096Z,-1.90
2018-12-15T06:36:41.502Z,-1.90
2018-12-15T06:39:12.214Z,-1.80
2018-12-15T06:41:44.707Z,-1.90
2018-12-15T06:44:15.320Z,-1.90
2018-12-15T06:46:46.171Z,-1.90
2018-12-15T06:49:17.015Z,-1.90
2018-12-15T06:51:47.911Z,-1.90
2018-12-15T06:54:18.419Z,-1.90
2018-12-15T06:56:48.909Z,-1.80
2018-12-15T06:59:19.364Z,-1.80
2018-12-15T07:01:49.801Z,-1.80
2018-12-15T07:04:20.500Z,-1.80
2018-12-15T07:06:50.858Z,-1.80
2018-12-15T07:09:21.358Z,-1.90
2018-12-15T07:11:52.515Z,-1.90
2018-12-15T07:14:23.343Z,-1.80
2018-12-15T07:16:53.717Z,-1.80
2018-12-15T07:19:24.513Z,-1.80
2018-12-15T07:21:55.211Z,-1.80
2018-12-15T07:24:25.652Z,-1.80
2018-12-15T07:26:56.025Z,-1.70
2018-12-15T07:29:26.482Z,-1.80
2018-12-15T07:31:56.983Z,-1.80
2018-12-15T07:34:27.429Z,-1.80
2018-12-15T07:36:58.743Z,-1.70
2018-12-15T07:39:29.135Z,-1.70
2018-12-15T07:41:59.554Z,-1.70
2018-12-15T07:44:29.920Z,-1.60
2018-12-15T07:47:00.587Z,-1.70
2018-12-15T07:49:31.079Z,-1.70
2018-12-15T07:52:01.711Z,-1.70
2018-12-15T07:54:32.164Z,-1.70
2018-12-15T07:57:02.878Z,-1.80
2018-12-15T07:59:33.335Z,-1.70
2018-12-15T08:02:04.298Z,-1.60
2018-12-15T08:04:35.042Z,-1.60
2018-12-15T08:07:06.536Z,-1.60
2018-12-15T08:09:37.743Z,-1.60
2018-12-15T08:12:13.496Z,-1.60
2018-12-15T08:14:45.388Z,-1.70
2018-12-15T08:17:20.888Z,-1.70
2018-12-15T08:19:52.182Z,-1.60
2018-12-15T08:22:26.049Z,-1.80
2018-12-15T08:24:55.457Z,-1.60
2018-12-15T08:27:26.149Z,-1.70
2018-12-15T08:29:56.870Z,-1.60
2018-12-15T08:32:27.605Z,-1.60
2018-12-15T08:35:00.237Z,-1.50
2018-12-15T08:37:30.663Z,-1.50
2018-12-15T08:40:01.050Z,-1.50
2018-12-15T08:42:32.219Z,-1.60
2018-12-15T08:45:02.734Z,-1.60
2018-12-15T08:47:34.773Z,-1.60
2018-12-15T08:50:06.012Z,-1.50
2018-12-15T08:52:36.396Z,-1.50
2018-12-15T08:55:07.065Z,-1.60
2018-12-15T08:57:37.454Z,-1.50
2018-12-15T09:00:08.052Z,-1.50
2018-12-15T09:02:38.532Z,-1.50
2018-12-15T09:05:09.034Z,-1.70
2018-12-15T09:07:41.508Z,-1.60
2018-12-15T09:10:12.117Z,-1.70
2018-12-15T09:12:43.783Z,-1.60
2018-12-15T09:15:18.161Z,-1.60
2018-12-15T09:17:49.636Z,-1.60
2018-12-15T09:20:21.067Z,-1.50
2018-12-15T09:22:53.581Z,-1.60
2018-12-15T09:25:24.901Z,-1.60
2018-12-15T09:27:56.306Z,-1.60
2018-12-15T09:30:28.416Z,-1.50
2018-12-15T09:33:00.925Z,-1.50
2018-12-15T09:35:32.484Z,-1.50
2018-12-15T09:38:03.779Z,-1.50
2018-12-15T09:40:34.960Z,-1.40
2018-12-15T09:43:06.272Z,-1.40
2018-12-15T09:45:37.580Z,-1.40
2018-12-15T09:48:08.522Z,-1.30
2018-12-15T09:50:39.557Z,-1.30
2018-12-15T09:53:10.533Z,-1.50
2018-12-15T09:55:41.546Z,-1.50
2018-12-15T09:58:12.460Z,-1.50
2018-12-15T10:00:43.213Z,-1.40
2018-12-15T10:03:13.602Z,-1.40
2018-12-15T10:05:44.070Z,-1.40
2018-12-15T10:08:14.498Z,-1.50
2018-12-15T10:10:44.952Z,-1.40
2018-12-15T10:13:15.359Z,-1.40
2018-12-15T10:15:45.925Z,-1.40
2018-12-15T10:18:16.393Z,-1.50
2018-12-15T10:20:46.794Z,-1.40
2018-12-15T10:23:17.468Z,-1.40
2018-12-15T10:25:48.945Z,-1.30
2018-12-15T10:28:20.249Z,-1.10
2018-12-15T10:30:56.120Z,-1.20
2018-12-15T10:33:26.554Z,-1.30
2018-12-15T10:35:57.040Z,-1.20
2018-12-15T10:38:27.423Z,-1.30
2018-12-15T10:40:57.923Z,-1.30
2018-12-15T10:43:28.383Z,-1.40
2018-12-15T10:45:58.882Z,-1.30
2018-12-15T10:48:30.996Z,-1.30
2018-12-15T10:51:01.466Z,-1.20
2018-12-15T10:53:33.139Z,-1.20
2018-12-15T10:56:03.531Z,-1.20
2018-12-15T10:58:34.889Z,-1.20
2018-12-15T11:01:13.072Z,-1.20
2018-12-15T11:03:45.224Z,-1.10
2018-12-15T11:06:15.717Z,-1.20
2018-12-15T11:08:47.265Z,-1.30
2018-12-15T11:11:17.757Z,-1.40
2018-12-15T11:13:48.207Z,-1.30
2018-12-15T11:16:18.598Z,-1.30
2018-12-15T11:18:49.074Z,-1.30
2018-12-15T11:21:19.451Z,-1.40
2018-12-15T11:23:49.945Z,-1.40
2018-12-15T11:26:20.446Z,-1.30
2018-12-15T11:28:50.852Z,-1.30
2018-12-15T11:31:21.335Z,-1.30
2018-12-15T11:33:54.487Z,-1.10
2018-12-15T11:36:24.878Z,-1.50
2018-12-15T11:38:55.254Z,-1.30
2018-12-15T11:41:26.677Z,-1.30
2018-12-15T11:43:57.122Z,-1.20
2018-12-15T11:46:27.635Z,-1.50
2018-12-15T11:48:58.091Z,-1.40
2018-12-15T11:51:28.507Z,-1.40
2018-12-15T11:53:58.989Z,-1.30
2018-12-15T11:56:29.483Z,-1.20
2018-12-15T11:58:59.954Z,-1.20
2018-12-15T12:01:30.923Z,-1.20
2018-12-15T12:04:01.318Z,-1.10
2018-12-15T12:06:31.970Z,-1.10
2018-12-15T12:09:02.449Z,-0.90
2018-12-15T12:11:34.584Z,-1.10
2018-12-15T12:14:05.094Z,-1.10
2018-12-15T12:16:35.743Z,-1.20
2018-12-15T12:19:06.267Z,-1.10
2018-12-15T12:21:36.697Z,-1.10
2018-12-15T12:24:07.076Z,-1.00
2018-12-15T12:26:39.200Z,-1.00
2018-12-15T12:29:09.623Z,-1.10
2018-12-15T12:31:40.054Z,-1.00
2018-12-15T12:34:10.450Z,-1.00
2018-12-15T12:36:40.878Z,-1.10
2018-12-15T12:39:11.745Z,-1.10
2018-12-15T12:41:45.680Z,-1.10
2018-12-15T12:44:16.201Z,-1.30
2018-12-15T12:46:47.655Z,-1.40
2018-12-15T12:49:18.163Z,-1.30
2018-12-15T12:51:48.662Z,-1.10
2018-12-15T12:54:19.061Z,-1.20
2018-12-15T12:56:50.913Z,-1.10
2018-12-15T12:59:25.859Z,-1.10
2018-12-15T13:01:56.904Z,-1.00
2018-12-15T13:04:27.302Z,-0.90
2018-12-15T13:06:57.688Z,-0.90
2018-12-15T13:09:34.100Z,-1.00
2018-12-15T13:12:14.376Z,-1.10
2018-12-15T13:14:44.836Z,-1.00
2018-12-15T13:17:24.829Z,-1.00
2018-12-15T13:20:03.834Z,-0.90
2018-12-15T13:22:41.769Z,-0.90
2018-12-15T13:25:22.001Z,-0.90
2018-12-15T13:27:56.060Z,-0.80
2018-12-15T13:30:37.392Z,-0.90
2018-12-15T13:33:21.692Z,-0.90
2018-12-15T13:36:07.016Z,-0.90
2018-12-15T13:38:40.325Z,-0.90
2018-12-15T13:41:21.010Z,-0.90
2018-12-15T13:44:03.171Z,-0.90
2018-12-15T13:46:40.959Z,-1.10
2018-12-15T13:49:22.407Z,-1.10
2018-12-15T13:52:00.921Z,-1.10
2018-12-15T13:54:49.634Z,-1.10
2018-12-15T13:57:26.650Z,-1.10
2018-12-15T14:00:04.394Z,-1.00
2018-12-15T14:02:42.024Z,-1.10
2018-12-15T14:05:16.694Z,-0.90
2018-12-15T14:07:59.072Z,-0.80
2018-12-15T14:10:29.559Z,-0.80
2018-12-15T14:13:11.517Z,-0.80
2018-12-15T14:15:42.147Z,-0.90
2018-12-15T14:18:16.126Z,-0.90
2018-12-15T14:20:46.824Z,-1.00
2018-12-15T14:23:22.669Z,-1.10
2018-12-15T14:25:58.754Z,-1.00
2018-12-15T14:28:39.507Z,-1.10
2018-12-15T14:31:10.301Z,-1.30
2018-12-15T14:33:41.102Z,-1.20
2018-12-15T14:36:17.512Z,-1.20
2018-12-15T14:39:00.473Z,-1.10
2018-12-15T14:41:30.988Z,-1.20
2018-12-15T14:44:01.670Z,-1.30
2018-12-15T14:46:38.109Z,-1.30
2018-12-15T14:49:13.583Z,-1.30
2018-12-15T14:51:43.969Z,-1.30
2018-12-15T14:54:14.375Z,-1.30
2018-12-15T14:56:48.686Z,-1.30
2018-12-15T14:59:19.054Z,-1.30
2018-12-15T15:01:50.400Z,-1.20
2018-12-15T15:04:20.807Z,-1.30
2018-12-15T15:06:51.200Z,-1.20
2018-12-15T15:09:21.891Z,-1.30
2018-12-15T15:11:52.320Z,-1.30
2018-12-15T15:14:23.691Z,-1.40
2018-12-15T15:16:54.070Z,-1.40
2018-12-15T15:19:24.560Z,-1.40
2018-12-15T15:21:54.912Z,-1.40
2018-12-15T15:24:25.495Z,-1.50
2018-12-15T15:26:55.883Z,-1.40
2018-12-15T15:29:26.297Z,-1.40
2018-12-15T15:31:56.740Z,-1.40
2018-12-15T15:34:27.132Z,-1.30
2018-12-15T15:37:03.673Z,-1.50
2018-12-15T15:39:37.129Z,-1.40
2018-12-15T15:42:15.315Z,-1.50
2018-12-15T15:44:52.111Z,-1.40
2018-12-15T15:47:22.544Z,-1.50
2018-12-15T15:49:52.937Z,-1.50
2018-12-15T15:52:23.416Z,-1.60
2018-12-15T15:54:53.804Z,-1.50
2018-12-15T15:57:24.184Z,-1.50
2018-12-15T15:59:54.703Z,-1.40
2018-12-15T16:02:25.083Z,-1.50
2018-12-15T16:04:55.491Z,-1.50
2018-12-15T16:07:25.867Z,-1.50
2018-12-15T16:09:56.287Z,-1.50
2018-12-15T16:12:26.646Z,-1.50
2018-12-15T16:14:57.098Z,-1.40
2018-12-15T16:17:27.692Z,-1.40
2018-12-15T16:19:59.060Z,-1.40
2018-12-15T16:22:29.470Z,-1.40
2018-12-15T16:24:59.846Z,-1.50
2018-12-15T16:27:30.255Z,-1.50
2018-12-15T16:30:01.651Z,-1.50
2018-12-15T16:32:32.347Z,-1.40
2018-12-15T16:35:02.785Z,-1.40
2018-12-15T16:37:33.917Z,-1.40
2018-12-15T16:40:06.719Z,-1.40
2018-12-15T16:42:37.354Z,-1.40
2018-12-15T16:45:09.006Z,-1.40
2018-12-15T16:47:40.368Z,-1.40
2018-12-15T16:50:11.447Z,-1.50
2018-12-15T16:52:42.217Z,-1.40
2018-12-15T16:55:13.001Z,-1.60
2018-12-15T16:57:44.568Z,-1.40
2018-12-15T17:00:15.072Z,-1.40
2018-12-15T17:02:45.852Z,-1.40
2018-12-15T17:05:17.379Z,-1.40
2018-12-15T17:07:47.955Z,-1.40
2018-12-15T17:10:18.555Z,-1.40
2018-12-15T17:12:49.040Z,-1.50
2018-12-15T17:15:20.871Z,-1.60
2018-12-15T17:17:51.376Z,-1.50
2018-12-15T17:20:21.756Z,-1.40
2018-12-15T17:22:52.260Z,-1.40
2018-12-15T17:25:22.638Z,-1.40
2018-12-15T17:27:53.066Z,-1.50
2018-12-15T17:30:23.529Z,-1.50
2018-12-15T17:32:54.064Z,-1.60
2018-12-15T17:35:24.600Z,-1.60
2018-12-15T17:37:55.148Z,-1.60
2018-12-15T17:40:25.618Z,-1.50
2018-12-15T17:42:56.429Z,-1.70
2018-12-15T17:45:26.895Z,-1.60
2018-12-15T17:48:11.162Z,-1.60
2018-12-15T17:50:52.525Z,-1.50
2018-12-15T17:53:24.828Z,-1.50
2018-12-15T17:55:57.454Z,-1.50
2018-12-15T17:58:28.870Z,-1.50
2018-12-15T18:00:59.876Z,-1.50
2018-12-15T18:03:30.348Z,-1.60
2018-12-15T18:06:00.781Z,-1.70
2018-12-15T18:08:31.148Z,-1.70
2018-12-15T18:11:01.572Z,-1.70
2018-12-15T18:13:33.284Z,-1.70
2018-12-15T18:16:04.317Z,-1.80
2018-12-15T18:18:37.553Z,-1.80
2018-12-15T18:21:09.943Z,-1.80
2018-12-15T18:23:43.721Z,-1.80
2018-12-15T18:26:16.695Z,-1.90
2018-12-15T18:28:48.212Z,-1.90
2018-12-15T18:31:20.430Z,-1.90
2018-12-15T18:33:53.171Z,-1.90
2018-12-15T18:36:24.595Z,-2.00
2018-12-15T18:38:55.147Z,-2.00
2018-12-15T18:41:25.651Z,-2.00
2018-12-15T18:43:56.182Z,-2.10
2018-12-15T18:46:26.546Z,-2.10
2018-12-15T18:48:56.958Z,-2.20
2018-12-15T18:51:27.447Z,-2.20
2018-12-15T18:53:58.251Z,-2.20
2018-12-15T18:56:29.179Z,-2.10
2018-12-15T18:58:59.863Z,-2.10
2018-12-15T19:01:31.307Z,-2.20
2018-12-15T19:04:07.948Z,-2.10
2018-12-15T19:06:40.659Z,-2.10
2018-12-15T19:09:11.496Z,-2.20
2018-12-15T19:11:44.752Z,-2.10
2018-12-15T19:14:17.953Z,-2.10
2018-12-15T19:16:49.853Z,-2.20
2018-12-15T19:19:20.590Z,-2.20
2018-12-15T19:21:50.979Z,-2.40
2018-12-15T19:24:22.465Z,-2.40
2018-12-15T19:26:53.091Z,-2.50
2018-12-15T19:29:23.496Z,-2.50
2018-12-15T19:31:54.950Z,-2.60
2018-12-15T19:34:25.359Z,-2.70
2018-12-15T19:36:56.805Z,-2.80
2018-12-15T19:39:27.701Z,-2.90
2018-12-15T19:41:58.591Z,-2.90
2018-12-15T19:44:29.467Z,-2.90
2018-12-15T19:47:00.931Z,-3.00
2018-12-15T19:49:31.614Z,-3.10
2018-12-15T19:52:02.016Z,-3.10
2018-12-15T19:54:32.421Z,-3.10
2018-12-15T19:57:02.813Z,-3.20
2018-12-15T19:59:33.189Z,-3.20
2018-12-15T20:02:03.623Z,-3.20
2018-12-15T20:04:34.302Z,-3.30
2018-12-15T20:07:04.781Z,-3.40
2018-12-15T20:09:35.175Z,-3.40
2018-12-15T20:12:05.625Z,-3.40
2018-12-15T20:14:36.125Z,-3.40
2018-12-15T20:17:06.480Z,-3.50
2018-12-15T20:19:36.958Z,-3.50
2018-12-15T20:22:07.517Z,-3.40
2018-12-15T20:24:39.627Z,-3.50
2018-12-15T20:27:11.906Z,-3.50
2018-12-15T20:29:45.093Z,-3.60
2018-12-15T20:32:17.479Z,-3.70
2018-12-15T20:34:50.275Z,-3.70
2018-12-15T20:37:22.859Z,-3.70
2018-12-15T20:39:54.242Z,-3.80
2018-12-15T20:42:24.660Z,-3.80
2018-12-15T20:44:55.138Z,-3.80
2018-12-15T20:47:27.956Z,-3.80
2018-12-15T20:49:57.964Z,-3.90
2018-12-15T20:52:28.409Z,-3.90
2018-12-15T20:54:58.904Z,-4.00
2018-12-15T20:57:31.256Z,-4.10
2018-12-15T21:00:01.706Z,-4.10
2018-12-15T21:02:33.183Z,-4.10
2018-12-15T21:05:05.038Z,-4.10
2018-12-15T21:07:35.537Z,-4.10
2018-12-15T21:10:07.188Z,-4.00
2018-12-15T21:12:37.628Z,-4.00
2018-12-15T21:15:09.962Z,-4.00
2018-12-15T21:17:40.468Z,-4.10
2018-12-15T21:20:11.131Z,-4.10
2018-12-15T21:22:44.446Z,-4.10
2018-12-15T21:25:16.498Z,-4.00
2018-12-15T21:27:48.747Z,-4.00
2018-12-15T21:30:22.708Z,-4.10
2018-12-15T21:32:55.764Z,-4.10
2018-12-15T21:35:28.253Z,-4.10
2018-12-15T21:37:59.824Z,-4.20
2018-12-15T21:40:32.193Z,-4.20
2018-12-15T21:43:03.988Z,-4.30
2018-12-15T21:45:36.183Z,-4.10
2018-12-15T21:48:09.658Z,-4.10
2018-12-15T21:50:45.775Z,-4.20
2018-12-15T21:53:18.138Z,-4.20
2018-12-15T21:55:50.810Z,-4.30
2018-12-15T21:58:23.175Z,-4.30
2018-12-15T22:00:55.342Z,-4.30
2018-12-15T22:03:41.626Z,-4.30
2018-12-15T22:06:14.219Z,-4.30
2018-12-15T22:08:47.017Z,-4.20
2018-12-15T22:11:18.757Z,-4.20
2018-12-15T22:13:51.042Z,-4.20
2018-12-15T22:16:22.015Z,-4.10
2018-12-15T22:18:52.418Z,-4.10
2018-12-15T22:21:23.555Z,-4.00
2018-12-15T22:23:53.949Z,-3.90
2018-12-15T22:26:24.376Z,-3.90
2018-12-15T22:28:56.520Z,-3.70
2018-12-15T22:31:37.499Z,-3.70
2018-12-15T22:34:08.382Z,-3.70
2018-12-15T22:36:38.797Z,-3.70
2018-12-15T22:39:09.208Z,-3.50
2018-12-15T22:41:39.623Z,-3.60
2018-12-15T22:44:10.322Z,-3.70
2018-12-15T22:46:42.910Z,-3.60
2018-12-15T22:49:14.133Z,-3.50
2018-12-15T22:51:46.149Z,-3.40
2018-12-15T22:54:18.419Z,-3.50
2018-12-15T22:56:49.590Z,-3.50
2018-12-15T22:59:21.144Z,-3.50
2018-12-15T23:01:53.030Z,-3.60
2018-12-15T23:04:24.297Z,-3.40
2018-12-15T23:06:55.621Z,-3.40
2018-12-15T23:09:26.118Z,-3.40
2018-12-15T23:11:56.733Z,-3.30
2018-12-15T23:14:29.264Z,-3.30
2018-12-15T23:17:00.805Z,-3.40
2018-12-15T23:19:32.608Z,-3.30
2018-12-15T23:22:04.776Z,-3.30
2018-12-15T23:24:43.775Z,-3.30
2018-12-15T23:27:14.912Z,-3.30
2018-12-15T23:29:45.612Z,-3.20
2018-12-15T23:32:16.352Z,-3.20
2018-12-15T23:34:47.628Z,-3.10
2018-12-15T23:37:19.506Z,-3.10
2018-12-15T23:39:50.186Z,-3.10
2018-12-15T23:42:20.774Z,-3.20
2018-12-15T23:44:53.098Z,-3.20
2018-12-15T23:47:23.867Z,-3.20
2018-12-15T23:49:54.581Z,-3.10
2018-12-15T23:52:25.022Z,-3.10
2018-12-15T23:54:55.425Z,-3.10
2018-12-15T23:57:25.823Z,-3.20
2018-12-15T23:59:56.243Z,-3.20
